sensor_id;sensor_type;location;lat;lon;timestamp;P1;durP1;ratioP1;P2;durP2;ratioP2
71080;SDS011;58740;50.672;18.690;2023-05-19T00:00:30;8.00;;;2.80;;
71080;SDS011;58740;50.672;18.690;2023-05-19T00:03:17;7.70;;;2.40;;
71080;SDS011;58740;50.672;18.690;2023-05-19T00:05:48;6.70;;;2.10;;
71080;SDS011;58740;50.672;18.690;2023-05-19T00:08:21;5.90;;;2.60;;
71080;SDS011;58740;50.672;18.690;2023-05-19T00:10:51;7.10;;;2.80;;
71080;SDS011;58740;50.672;18.690;2023-05-19T00:13:20;6.40;;;2.20;;
71080;SDS011;58740;50.672;18.690;2023-05-19T00:15:49;6.70;;;3.10;;
71080;SDS011;58740;50.672;18.690;2023-05-19T00:18:17;6.10;;;2.20;;
71080;SDS011;58740;50.672;18.690;2023-05-19T00:20:45;6.90;;;2.10;;
71080;SDS011;58740;50.672;18.690;2023-05-19T00:23:12;6.80;;;2.10;;
71080;SDS011;58740;50.672;18.690;2023-05-19T00:25:41;7.60;;;2.60;;
71080;SDS011;58740;50.672;18.690;2023-05-19T00:28:08;6.00;;;2.40;;
71080;SDS011;58740;50.672;18.690;2023-05-19T00:30:36;7.60;;;2.30;;
71080;SDS011;58740;50.672;18.690;2023-05-19T00:33:04;6.60;;;2.30;;
71080;SDS011;58740;50.672;18.690;2023-05-19T00:35:32;6.20;;;2.00;;
71080;SDS011;58740;50.672;18.690;2023-05-19T00:37:59;6.10;;;1.90;;
71080;SDS011;58740;50.672;18.690;2023-05-19T00:40:28;7.50;;;3.20;;
71080;SDS011;58740;50.672;18.690;2023-05-19T00:42:58;6.80;;;2.50;;
71080;SDS011;58740;50.672;18.690;2023-05-19T00:45:27;6.60;;;2.80;;
71080;SDS011;58740;50.672;18.690;2023-05-19T00:47:55;8.70;;;3.20;;
71080;SDS011;58740;50.672;18.690;2023-05-19T00:50:23;7.30;;;3.00;;
71080;SDS011;58740;50.672;18.690;2023-05-19T00:52:51;7.50;;;3.20;;
71080;SDS011;58740;50.672;18.690;2023-05-19T00:55:21;7.30;;;3.40;;
71080;SDS011;58740;50.672;18.690;2023-05-19T00:57:54;13.30;;;4.70;;
71080;SDS011;58740;50.672;18.690;2023-05-19T01:00:23;8.50;;;3.90;;
71080;SDS011;58740;50.672;18.690;2023-05-19T01:02:51;11.00;;;5.70;;
71080;SDS011;58740;50.672;18.690;2023-05-19T01:05:21;11.00;;;6.00;;
71080;SDS011;58740;50.672;18.690;2023-05-19T01:07:49;10.60;;;5.60;;
71080;SDS011;58740;50.672;18.690;2023-05-19T01:10:21;9.50;;;4.00;;
71080;SDS011;58740;50.672;18.690;2023-05-19T01:12:49;13.60;;;5.80;;
71080;SDS011;58740;50.672;18.690;2023-05-19T01:15:17;10.40;;;4.50;;
71080;SDS011;58740;50.672;18.690;2023-05-19T01:17:55;10.90;;;4.10;;
71080;SDS011;58740;50.672;18.690;2023-05-19T01:20:48;10.30;;;3.80;;
71080;SDS011;58740;50.672;18.690;2023-05-19T01:23:42;8.90;;;4.40;;
71080;SDS011;58740;50.672;18.690;2023-05-19T01:32:44;9.30;;;3.90;;
71080;SDS011;58740;50.672;18.690;2023-05-19T01:35:15;9.50;;;4.00;;
71080;SDS011;58740;50.672;18.690;2023-05-19T01:37:44;8.50;;;3.70;;
71080;SDS011;58740;50.672;18.690;2023-05-19T01:40:13;8.80;;;3.70;;
71080;SDS011;58740;50.672;18.690;2023-05-19T01:42:41;8.30;;;3.00;;
71080;SDS011;58740;50.672;18.690;2023-05-19T01:45:10;8.60;;;3.30;;
71080;SDS011;58740;50.672;18.690;2023-05-19T01:47:47;6.40;;;2.40;;
71080;SDS011;58740;50.672;18.690;2023-05-19T01:50:16;9.20;;;3.20;;
71080;SDS011;58740;50.672;18.690;2023-05-19T01:52:44;6.00;;;2.40;;
71080;SDS011;58740;50.672;18.690;2023-05-19T01:55:12;6.20;;;2.00;;
71080;SDS011;58740;50.672;18.690;2023-05-19T01:58:08;5.20;;;1.80;;
71080;SDS011;58740;50.672;18.690;2023-05-19T02:01:20;8.80;;;2.60;;
71080;SDS011;58740;50.672;18.690;2023-05-19T02:07:16;5.90;;;2.70;;
71080;SDS011;58740;50.672;18.690;2023-05-19T02:10:09;7.50;;;3.30;;
71080;SDS011;58740;50.672;18.690;2023-05-19T02:12:42;7.40;;;3.40;;
71080;SDS011;58740;50.672;18.690;2023-05-19T02:15:17;6.40;;;2.70;;
71080;SDS011;58740;50.672;18.690;2023-05-19T02:17:50;9.20;;;3.20;;
71080;SDS011;58740;50.672;18.690;2023-05-19T02:20:20;6.40;;;2.80;;
71080;SDS011;58740;50.672;18.690;2023-05-19T02:22:49;9.80;;;4.00;;
71080;SDS011;58740;50.672;18.690;2023-05-19T02:25:16;8.90;;;3.80;;
71080;SDS011;58740;50.672;18.690;2023-05-19T02:27:44;6.60;;;2.80;;
71080;SDS011;58740;50.672;18.690;2023-05-19T02:30:12;8.10;;;3.20;;
71080;SDS011;58740;50.672;18.690;2023-05-19T02:32:40;7.30;;;3.10;;
71080;SDS011;58740;50.672;18.690;2023-05-19T02:35:08;9.60;;;3.40;;
71080;SDS011;58740;50.672;18.690;2023-05-19T02:37:36;8.10;;;3.30;;
71080;SDS011;58740;50.672;18.690;2023-05-19T02:40:04;7.00;;;3.00;;
71080;SDS011;58740;50.672;18.690;2023-05-19T02:42:33;9.30;;;4.60;;
71080;SDS011;58740;50.672;18.690;2023-05-19T02:45:00;9.40;;;4.30;;
71080;SDS011;58740;50.672;18.690;2023-05-19T02:47:28;12.90;;;6.10;;
71080;SDS011;58740;50.672;18.690;2023-05-19T02:49:56;14.40;;;6.90;;
71080;SDS011;58740;50.672;18.690;2023-05-19T02:52:23;12.60;;;5.10;;
71080;SDS011;58740;50.672;18.690;2023-05-19T02:54:51;10.30;;;4.20;;
71080;SDS011;58740;50.672;18.690;2023-05-19T02:57:19;11.20;;;4.30;;
71080;SDS011;58740;50.672;18.690;2023-05-19T02:59:47;10.20;;;4.10;;
71080;SDS011;58740;50.672;18.690;2023-05-19T03:02:15;7.30;;;3.50;;
71080;SDS011;58740;50.672;18.690;2023-05-19T03:04:43;8.50;;;3.10;;
71080;SDS011;58740;50.672;18.690;2023-05-19T03:07:12;8.30;;;3.30;;
71080;SDS011;58740;50.672;18.690;2023-05-19T03:09:40;7.60;;;3.30;;
71080;SDS011;58740;50.672;18.690;2023-05-19T03:12:07;7.60;;;3.20;;
71080;SDS011;58740;50.672;18.690;2023-05-19T03:14:36;8.10;;;3.30;;
71080;SDS011;58740;50.672;18.690;2023-05-19T03:17:05;10.80;;;3.80;;
71080;SDS011;58740;50.672;18.690;2023-05-19T03:19:36;9.00;;;3.50;;
71080;SDS011;58740;50.672;18.690;2023-05-19T03:22:04;7.90;;;4.00;;
71080;SDS011;58740;50.672;18.690;2023-05-19T03:24:33;9.40;;;3.70;;
71080;SDS011;58740;50.672;18.690;2023-05-19T03:27:01;8.30;;;4.10;;
71080;SDS011;58740;50.672;18.690;2023-05-19T03:29:31;6.70;;;2.90;;
71080;SDS011;58740;50.672;18.690;2023-05-19T03:31:59;6.80;;;3.50;;
71080;SDS011;58740;50.672;18.690;2023-05-19T03:34:28;9.70;;;3.70;;
71080;SDS011;58740;50.672;18.690;2023-05-19T03:36:55;7.20;;;3.50;;
71080;SDS011;58740;50.672;18.690;2023-05-19T03:39:23;8.30;;;3.80;;
71080;SDS011;58740;50.672;18.690;2023-05-19T03:41:51;9.00;;;4.10;;
71080;SDS011;58740;50.672;18.690;2023-05-19T03:44:19;8.70;;;3.50;;
71080;SDS011;58740;50.672;18.690;2023-05-19T03:46:47;7.60;;;4.00;;
71080;SDS011;58740;50.672;18.690;2023-05-19T03:49:15;11.20;;;4.80;;
71080;SDS011;58740;50.672;18.690;2023-05-19T03:51:42;8.90;;;3.60;;
71080;SDS011;58740;50.672;18.690;2023-05-19T03:54:10;8.20;;;3.80;;
71080;SDS011;58740;50.672;18.690;2023-05-19T03:56:41;9.30;;;3.80;;
71080;SDS011;58740;50.672;18.690;2023-05-19T03:59:09;7.80;;;3.20;;
71080;SDS011;58740;50.672;18.690;2023-05-19T04:01:38;9.00;;;3.80;;
71080;SDS011;58740;50.672;18.690;2023-05-19T04:04:06;18.00;;;7.40;;
71080;SDS011;58740;50.672;18.690;2023-05-19T04:06:34;12.30;;;5.70;;
71080;SDS011;58740;50.672;18.690;2023-05-19T04:09:10;10.60;;;4.40;;
71080;SDS011;58740;50.672;18.690;2023-05-19T04:11:41;12.60;;;4.80;;
71080;SDS011;58740;50.672;18.690;2023-05-19T04:14:09;8.60;;;4.20;;
71080;SDS011;58740;50.672;18.690;2023-05-19T04:16:37;10.20;;;5.00;;
71080;SDS011;58740;50.672;18.690;2023-05-19T04:19:05;9.50;;;4.30;;
71080;SDS011;58740;50.672;18.690;2023-05-19T04:21:32;10.20;;;4.60;;
71080;SDS011;58740;50.672;18.690;2023-05-19T04:24:00;7.20;;;3.50;;
71080;SDS011;58740;50.672;18.690;2023-05-19T04:26:29;17.30;;;8.40;;
71080;SDS011;58740;50.672;18.690;2023-05-19T04:28:57;20.00;;;9.00;;
71080;SDS011;58740;50.672;18.690;2023-05-19T04:31:25;13.60;;;6.10;;
71080;SDS011;58740;50.672;18.690;2023-05-19T04:33:55;11.30;;;4.80;;
71080;SDS011;58740;50.672;18.690;2023-05-19T04:36:22;28.60;;;14.70;;
71080;SDS011;58740;50.672;18.690;2023-05-19T04:38:50;25.40;;;12.80;;
71080;SDS011;58740;50.672;18.690;2023-05-19T04:41:21;15.40;;;6.00;;
71080;SDS011;58740;50.672;18.690;2023-05-19T04:43:49;11.60;;;5.80;;
71080;SDS011;58740;50.672;18.690;2023-05-19T04:46:17;18.80;;;13.10;;
71080;SDS011;58740;50.672;18.690;2023-05-19T04:48:45;12.00;;;7.20;;
71080;SDS011;58740;50.672;18.690;2023-05-19T04:51:12;9.60;;;5.30;;
71080;SDS011;58740;50.672;18.690;2023-05-19T04:53:41;9.60;;;5.40;;
71080;SDS011;58740;50.672;18.690;2023-05-19T04:56:09;9.80;;;4.90;;
71080;SDS011;58740;50.672;18.690;2023-05-19T04:58:37;9.10;;;3.80;;
71080;SDS011;58740;50.672;18.690;2023-05-19T05:01:08;17.70;;;9.00;;
71080;SDS011;58740;50.672;18.690;2023-05-19T05:03:36;10.00;;;4.60;;
71080;SDS011;58740;50.672;18.690;2023-05-19T05:06:04;12.60;;;5.60;;
71080;SDS011;58740;50.672;18.690;2023-05-19T05:08:33;12.10;;;6.00;;
71080;SDS011;58740;50.672;18.690;2023-05-19T05:11:02;14.10;;;6.50;;
71080;SDS011;58740;50.672;18.690;2023-05-19T05:13:30;14.80;;;7.60;;
71080;SDS011;58740;50.672;18.690;2023-05-19T05:15:58;12.90;;;6.30;;
71080;SDS011;58740;50.672;18.690;2023-05-19T05:18:27;10.50;;;5.30;;
71080;SDS011;58740;50.672;18.690;2023-05-19T05:20:55;12.30;;;6.50;;
71080;SDS011;58740;50.672;18.690;2023-05-19T05:23:23;9.70;;;4.90;;
71080;SDS011;58740;50.672;18.690;2023-05-19T05:25:52;7.90;;;4.10;;
71080;SDS011;58740;50.672;18.690;2023-05-19T05:28:20;9.80;;;5.10;;
71080;SDS011;58740;50.672;18.690;2023-05-19T05:30:48;10.10;;;5.80;;
71080;SDS011;58740;50.672;18.690;2023-05-19T05:33:17;12.00;;;6.30;;
71080;SDS011;58740;50.672;18.690;2023-05-19T05:35:46;11.70;;;6.10;;
71080;SDS011;58740;50.672;18.690;2023-05-19T05:38:13;11.90;;;5.10;;
71080;SDS011;58740;50.672;18.690;2023-05-19T05:40:41;11.00;;;5.30;;
71080;SDS011;58740;50.672;18.690;2023-05-19T05:43:09;10.70;;;5.10;;
71080;SDS011;58740;50.672;18.690;2023-05-19T05:45:36;9.80;;;5.30;;
71080;SDS011;58740;50.672;18.690;2023-05-19T05:48:05;11.20;;;5.10;;
71080;SDS011;58740;50.672;18.690;2023-05-19T05:50:33;9.60;;;5.50;;
71080;SDS011;58740;50.672;18.690;2023-05-19T05:53:02;13.10;;;6.00;;
71080;SDS011;58740;50.672;18.690;2023-05-19T05:55:31;11.70;;;5.70;;
71080;SDS011;58740;50.672;18.690;2023-05-19T05:58:00;11.10;;;6.20;;
71080;SDS011;58740;50.672;18.690;2023-05-19T06:00:28;13.90;;;6.70;;
71080;SDS011;58740;50.672;18.690;2023-05-19T06:02:56;11.90;;;6.50;;
71080;SDS011;58740;50.672;18.690;2023-05-19T06:05:25;11.80;;;6.40;;
71080;SDS011;58740;50.672;18.690;2023-05-19T06:07:53;15.40;;;7.00;;
71080;SDS011;58740;50.672;18.690;2023-05-19T06:10:21;11.60;;;5.60;;
71080;SDS011;58740;50.672;18.690;2023-05-19T06:12:49;11.10;;;5.40;;
71080;SDS011;58740;50.672;18.690;2023-05-19T06:15:17;8.70;;;3.80;;
71080;SDS011;58740;50.672;18.690;2023-05-19T06:17:45;11.20;;;5.70;;
71080;SDS011;58740;50.672;18.690;2023-05-19T06:20:13;10.40;;;4.80;;
71080;SDS011;58740;50.672;18.690;2023-05-19T06:22:41;11.40;;;4.70;;
71080;SDS011;58740;50.672;18.690;2023-05-19T06:25:09;11.30;;;5.70;;
71080;SDS011;58740;50.672;18.690;2023-05-19T06:27:37;10.90;;;4.60;;
71080;SDS011;58740;50.672;18.690;2023-05-19T06:30:05;10.80;;;4.40;;
71080;SDS011;58740;50.672;18.690;2023-05-19T06:32:35;9.80;;;4.40;;
71080;SDS011;58740;50.672;18.690;2023-05-19T06:35:03;10.30;;;5.40;;
71080;SDS011;58740;50.672;18.690;2023-05-19T06:37:31;10.10;;;4.60;;
71080;SDS011;58740;50.672;18.690;2023-05-19T06:39:59;10.70;;;5.00;;
71080;SDS011;58740;50.672;18.690;2023-05-19T06:42:26;12.60;;;5.10;;
71080;SDS011;58740;50.672;18.690;2023-05-19T06:44:54;11.50;;;6.30;;
71080;SDS011;58740;50.672;18.690;2023-05-19T06:47:22;11.50;;;5.70;;
71080;SDS011;58740;50.672;18.690;2023-05-19T06:49:50;9.20;;;4.70;;
71080;SDS011;58740;50.672;18.690;2023-05-19T06:52:22;8.50;;;4.50;;
71080;SDS011;58740;50.672;18.690;2023-05-19T06:54:50;11.30;;;6.60;;
71080;SDS011;58740;50.672;18.690;2023-05-19T06:57:17;11.00;;;6.00;;
71080;SDS011;58740;50.672;18.690;2023-05-19T06:59:45;12.60;;;7.00;;
71080;SDS011;58740;50.672;18.690;2023-05-19T07:02:13;12.90;;;6.30;;
71080;SDS011;58740;50.672;18.690;2023-05-19T07:04:41;11.00;;;5.90;;
71080;SDS011;58740;50.672;18.690;2023-05-19T07:07:09;10.60;;;5.50;;
71080;SDS011;58740;50.672;18.690;2023-05-19T07:09:37;10.90;;;6.00;;
71080;SDS011;58740;50.672;18.690;2023-05-19T07:12:05;10.20;;;4.60;;
71080;SDS011;58740;50.672;18.690;2023-05-19T07:14:33;9.40;;;4.80;;
71080;SDS011;58740;50.672;18.690;2023-05-19T07:17:03;14.10;;;5.70;;
71080;SDS011;58740;50.672;18.690;2023-05-19T07:19:31;9.40;;;3.70;;
71080;SDS011;58740;50.672;18.690;2023-05-19T07:21:59;10.40;;;5.30;;
71080;SDS011;58740;50.672;18.690;2023-05-19T07:24:27;17.80;;;6.00;;
71080;SDS011;58740;50.672;18.690;2023-05-19T07:26:54;10.60;;;5.00;;
71080;SDS011;58740;50.672;18.690;2023-05-19T07:29:22;9.90;;;5.10;;
71080;SDS011;58740;50.672;18.690;2023-05-19T07:31:50;8.60;;;4.40;;
71080;SDS011;58740;50.672;18.690;2023-05-19T07:34:20;9.40;;;4.70;;
71080;SDS011;58740;50.672;18.690;2023-05-19T07:36:48;11.00;;;5.50;;
71080;SDS011;58740;50.672;18.690;2023-05-19T07:39:17;9.50;;;4.20;;
71080;SDS011;58740;50.672;18.690;2023-05-19T07:41:46;11.50;;;5.20;;
71080;SDS011;58740;50.672;18.690;2023-05-19T07:44:19;6.90;;;3.90;;
71080;SDS011;58740;50.672;18.690;2023-05-19T07:46:47;9.90;;;4.20;;
71080;SDS011;58740;50.672;18.690;2023-05-19T07:49:14;11.40;;;5.80;;
71080;SDS011;58740;50.672;18.690;2023-05-19T07:51:42;8.30;;;4.20;;
71080;SDS011;58740;50.672;18.690;2023-05-19T07:54:10;11.50;;;4.60;;
71080;SDS011;58740;50.672;18.690;2023-05-19T07:56:39;14.30;;;5.20;;
71080;SDS011;58740;50.672;18.690;2023-05-19T07:59:07;11.00;;;4.70;;
71080;SDS011;58740;50.672;18.690;2023-05-19T08:01:34;9.10;;;4.10;;
71080;SDS011;58740;50.672;18.690;2023-05-19T08:04:02;9.10;;;4.50;;
71080;SDS011;58740;50.672;18.690;2023-05-19T08:06:30;8.60;;;3.90;;
71080;SDS011;58740;50.672;18.690;2023-05-19T08:08:58;21.40;;;5.50;;
71080;SDS011;58740;50.672;18.690;2023-05-19T08:11:26;13.10;;;5.60;;
71080;SDS011;58740;50.672;18.690;2023-05-19T08:13:54;11.60;;;5.00;;
71080;SDS011;58740;50.672;18.690;2023-05-19T08:16:23;10.30;;;4.50;;
71080;SDS011;58740;50.672;18.690;2023-05-19T08:18:53;9.40;;;4.20;;
71080;SDS011;58740;50.672;18.690;2023-05-19T08:21:26;12.40;;;5.60;;
71080;SDS011;58740;50.672;18.690;2023-05-19T08:23:54;11.30;;;5.20;;
71080;SDS011;58740;50.672;18.690;2023-05-19T08:26:23;8.80;;;4.30;;
71080;SDS011;58740;50.672;18.690;2023-05-19T08:28:51;11.00;;;4.50;;
71080;SDS011;58740;50.672;18.690;2023-05-19T08:31:19;9.80;;;4.50;;
71080;SDS011;58740;50.672;18.690;2023-05-19T08:33:47;9.10;;;4.40;;
71080;SDS011;58740;50.672;18.690;2023-05-19T08:36:15;9.20;;;4.20;;
71080;SDS011;58740;50.672;18.690;2023-05-19T08:38:42;10.80;;;4.90;;
71080;SDS011;58740;50.672;18.690;2023-05-19T08:41:10;8.50;;;4.40;;
71080;SDS011;58740;50.672;18.690;2023-05-19T08:43:38;10.30;;;4.40;;
71080;SDS011;58740;50.672;18.690;2023-05-19T08:46:06;10.50;;;4.20;;
71080;SDS011;58740;50.672;18.690;2023-05-19T08:48:37;12.10;;;5.20;;
71080;SDS011;58740;50.672;18.690;2023-05-19T08:51:32;10.50;;;4.30;;
71080;SDS011;58740;50.672;18.690;2023-05-19T08:54:14;15.50;;;4.70;;
71080;SDS011;58740;50.672;18.690;2023-05-19T08:56:44;10.50;;;4.60;;
71080;SDS011;58740;50.672;18.690;2023-05-19T08:59:13;10.70;;;4.80;;
71080;SDS011;58740;50.672;18.690;2023-05-19T09:01:45;8.80;;;4.80;;
71080;SDS011;58740;50.672;18.690;2023-05-19T09:04:15;11.00;;;4.90;;
71080;SDS011;58740;50.672;18.690;2023-05-19T09:06:43;9.10;;;3.90;;
71080;SDS011;58740;50.672;18.690;2023-05-19T09:09:12;8.30;;;4.20;;
71080;SDS011;58740;50.672;18.690;2023-05-19T09:11:40;8.60;;;4.30;;
71080;SDS011;58740;50.672;18.690;2023-05-19T09:14:11;9.00;;;4.10;;
71080;SDS011;58740;50.672;18.690;2023-05-19T09:16:39;8.10;;;3.60;;
71080;SDS011;58740;50.672;18.690;2023-05-19T09:19:12;7.60;;;3.80;;
71080;SDS011;58740;50.672;18.690;2023-05-19T09:21:42;12.20;;;4.00;;
71080;SDS011;58740;50.672;18.690;2023-05-19T09:24:12;8.50;;;4.10;;
71080;SDS011;58740;50.672;18.690;2023-05-19T09:26:41;8.90;;;4.20;;
71080;SDS011;58740;50.672;18.690;2023-05-19T09:29:14;7.10;;;3.80;;
71080;SDS011;58740;50.672;18.690;2023-05-19T09:31:47;9.10;;;5.00;;
71080;SDS011;58740;50.672;18.690;2023-05-19T09:34:19;10.70;;;4.50;;
71080;SDS011;58740;50.672;18.690;2023-05-19T09:36:49;9.00;;;3.60;;
71080;SDS011;58740;50.672;18.690;2023-05-19T09:39:21;9.50;;;4.30;;
71080;SDS011;58740;50.672;18.690;2023-05-19T09:41:51;10.80;;;4.50;;
71080;SDS011;58740;50.672;18.690;2023-05-19T09:44:25;8.50;;;4.40;;
71080;SDS011;58740;50.672;18.690;2023-05-19T09:46:57;10.20;;;4.40;;
71080;SDS011;58740;50.672;18.690;2023-05-19T09:49:26;11.70;;;5.10;;
71080;SDS011;58740;50.672;18.690;2023-05-19T09:51:58;10.90;;;4.00;;
71080;SDS011;58740;50.672;18.690;2023-05-19T09:54:29;9.20;;;3.50;;
71080;SDS011;58740;50.672;18.690;2023-05-19T09:57:02;8.00;;;4.30;;
71080;SDS011;58740;50.672;18.690;2023-05-19T09:59:34;9.60;;;4.00;;
71080;SDS011;58740;50.672;18.690;2023-05-19T10:02:14;21.70;;;5.40;;
71080;SDS011;58740;50.672;18.690;2023-05-19T10:04:45;9.70;;;4.70;;
71080;SDS011;58740;50.672;18.690;2023-05-19T10:07:15;10.40;;;4.70;;
71080;SDS011;58740;50.672;18.690;2023-05-19T10:09:44;11.30;;;4.20;;
71080;SDS011;58740;50.672;18.690;2023-05-19T10:12:13;9.50;;;4.10;;
71080;SDS011;58740;50.672;18.690;2023-05-19T10:14:42;10.30;;;3.90;;
71080;SDS011;58740;50.672;18.690;2023-05-19T10:17:11;11.00;;;4.70;;
71080;SDS011;58740;50.672;18.690;2023-05-19T10:19:42;10.20;;;4.50;;
71080;SDS011;58740;50.672;18.690;2023-05-19T10:22:11;9.80;;;4.00;;
71080;SDS011;58740;50.672;18.690;2023-05-19T10:24:39;11.00;;;4.70;;
71080;SDS011;58740;50.672;18.690;2023-05-19T10:27:11;10.60;;;3.80;;
71080;SDS011;58740;50.672;18.690;2023-05-19T10:29:44;11.70;;;4.80;;
71080;SDS011;58740;50.672;18.690;2023-05-19T10:32:21;8.40;;;3.50;;
71080;SDS011;58740;50.672;18.690;2023-05-19T10:46:51;9.50;;;4.50;;
71080;SDS011;58740;50.672;18.690;2023-05-19T10:49:22;11.90;;;4.60;;
71080;SDS011;58740;50.672;18.690;2023-05-19T10:51:51;10.40;;;4.80;;
71080;SDS011;58740;50.672;18.690;2023-05-19T10:54:43;11.40;;;5.40;;
71080;SDS011;58740;50.672;18.690;2023-05-19T10:57:19;8.10;;;5.40;;
71080;SDS011;58740;50.672;18.690;2023-05-19T10:59:54;7.60;;;3.90;;
71080;SDS011;58740;50.672;18.690;2023-05-19T11:02:40;9.20;;;3.90;;
71080;SDS011;58740;50.672;18.690;2023-05-19T11:05:15;8.80;;;4.10;;
71080;SDS011;58740;50.672;18.690;2023-05-19T11:07:58;8.80;;;4.90;;
71080;SDS011;58740;50.672;18.690;2023-05-19T11:10:33;9.80;;;5.20;;
71080;SDS011;58740;50.672;18.690;2023-05-19T11:13:03;9.60;;;5.10;;
71080;SDS011;58740;50.672;18.690;2023-05-19T11:15:34;9.90;;;5.00;;
71080;SDS011;58740;50.672;18.690;2023-05-19T11:18:03;8.40;;;4.60;;
71080;SDS011;58740;50.672;18.690;2023-05-19T11:20:31;7.80;;;4.40;;
71080;SDS011;58740;50.672;18.690;2023-05-19T11:23:05;9.00;;;4.40;;
71080;SDS011;58740;50.672;18.690;2023-05-19T11:25:50;9.60;;;4.10;;
71080;SDS011;58740;50.672;18.690;2023-05-19T11:28:22;9.40;;;4.30;;
71080;SDS011;58740;50.672;18.690;2023-05-19T11:30:55;13.40;;;6.60;;
71080;SDS011;58740;50.672;18.690;2023-05-19T11:33:25;10.10;;;5.10;;
71080;SDS011;58740;50.672;18.690;2023-05-19T11:35:55;8.30;;;3.80;;
71080;SDS011;58740;50.672;18.690;2023-05-19T11:38:27;8.80;;;5.00;;
71080;SDS011;58740;50.672;18.690;2023-05-19T11:40:56;8.90;;;4.50;;
71080;SDS011;58740;50.672;18.690;2023-05-19T11:43:25;10.00;;;4.20;;
71080;SDS011;58740;50.672;18.690;2023-05-19T11:45:53;7.50;;;4.00;;
71080;SDS011;58740;50.672;18.690;2023-05-19T11:48:23;8.90;;;4.80;;
71080;SDS011;58740;50.672;18.690;2023-05-19T11:50:52;10.10;;;4.30;;
71080;SDS011;58740;50.672;18.690;2023-05-19T11:53:20;8.50;;;4.60;;
71080;SDS011;58740;50.672;18.690;2023-05-19T11:55:47;9.20;;;4.60;;
71080;SDS011;58740;50.672;18.690;2023-05-19T11:58:16;9.80;;;5.00;;
71080;SDS011;58740;50.672;18.690;2023-05-19T12:00:44;8.70;;;4.10;;
71080;SDS011;58740;50.672;18.690;2023-05-19T12:03:20;9.40;;;5.40;;
71080;SDS011;58740;50.672;18.690;2023-05-19T12:05:53;8.20;;;4.60;;
71080;SDS011;58740;50.672;18.690;2023-05-19T12:08:21;9.50;;;4.20;;
71080;SDS011;58740;50.672;18.690;2023-05-19T12:10:51;9.30;;;4.40;;
71080;SDS011;58740;50.672;18.690;2023-05-19T12:13:19;8.90;;;4.90;;
71080;SDS011;58740;50.672;18.690;2023-05-19T12:15:50;8.80;;;4.40;;
71080;SDS011;58740;50.672;18.690;2023-05-19T12:18:19;11.10;;;4.60;;
71080;SDS011;58740;50.672;18.690;2023-05-19T12:20:47;9.30;;;4.80;;
71080;SDS011;58740;50.672;18.690;2023-05-19T12:23:15;9.50;;;4.60;;
71080;SDS011;58740;50.672;18.690;2023-05-19T12:25:43;7.90;;;5.10;;
71080;SDS011;58740;50.672;18.690;2023-05-19T12:28:12;9.00;;;4.80;;
71080;SDS011;58740;50.672;18.690;2023-05-19T12:30:46;8.90;;;4.50;;
71080;SDS011;58740;50.672;18.690;2023-05-19T12:33:19;7.70;;;4.60;;
71080;SDS011;58740;50.672;18.690;2023-05-19T12:35:50;10.10;;;4.90;;
71080;SDS011;58740;50.672;18.690;2023-05-19T12:38:18;11.20;;;5.30;;
71080;SDS011;58740;50.672;18.690;2023-05-19T12:40:48;7.90;;;4.60;;
71080;SDS011;58740;50.672;18.690;2023-05-19T12:43:20;9.40;;;5.20;;
71080;SDS011;58740;50.672;18.690;2023-05-19T12:45:49;9.10;;;4.40;;
71080;SDS011;58740;50.672;18.690;2023-05-19T12:48:20;8.90;;;4.90;;
71080;SDS011;58740;50.672;18.690;2023-05-19T12:50:52;11.80;;;4.80;;
71080;SDS011;58740;50.672;18.690;2023-05-19T12:53:25;10.90;;;5.20;;
71080;SDS011;58740;50.672;18.690;2023-05-19T12:55:54;9.40;;;5.00;;
71080;SDS011;58740;50.672;18.690;2023-05-19T12:58:22;10.90;;;5.30;;
71080;SDS011;58740;50.672;18.690;2023-05-19T13:00:57;8.70;;;5.00;;
71080;SDS011;58740;50.672;18.690;2023-05-19T13:03:26;12.80;;;5.50;;
71080;SDS011;58740;50.672;18.690;2023-05-19T13:05:54;9.60;;;5.90;;
71080;SDS011;58740;50.672;18.690;2023-05-19T13:08:22;10.20;;;6.00;;
71080;SDS011;58740;50.672;18.690;2023-05-19T13:10:51;10.20;;;7.20;;
71080;SDS011;58740;50.672;18.690;2023-05-19T13:13:19;11.10;;;6.00;;
71080;SDS011;58740;50.672;18.690;2023-05-19T13:15:48;9.60;;;5.50;;
71080;SDS011;58740;50.672;18.690;2023-05-19T13:18:17;10.40;;;6.20;;
71080;SDS011;58740;50.672;18.690;2023-05-19T13:20:45;10.60;;;5.60;;
71080;SDS011;58740;50.672;18.690;2023-05-19T13:23:15;9.60;;;5.90;;
71080;SDS011;58740;50.672;18.690;2023-05-19T13:25:44;11.20;;;6.70;;
71080;SDS011;58740;50.672;18.690;2023-05-19T13:28:13;11.70;;;6.50;;
71080;SDS011;58740;50.672;18.690;2023-05-19T13:30:42;9.60;;;5.40;;
71080;SDS011;58740;50.672;18.690;2023-05-19T13:33:10;9.90;;;6.10;;
71080;SDS011;58740;50.672;18.690;2023-05-19T13:35:38;11.40;;;5.90;;
71080;SDS011;58740;50.672;18.690;2023-05-19T13:38:07;10.30;;;5.70;;
71080;SDS011;58740;50.672;18.690;2023-05-19T13:40:38;10.30;;;6.20;;
71080;SDS011;58740;50.672;18.690;2023-05-19T13:43:06;9.60;;;5.80;;
71080;SDS011;58740;50.672;18.690;2023-05-19T13:45:35;14.20;;;6.60;;
71080;SDS011;58740;50.672;18.690;2023-05-19T13:48:04;8.30;;;5.20;;
71080;SDS011;58740;50.672;18.690;2023-05-19T13:50:34;10.90;;;6.00;;
71080;SDS011;58740;50.672;18.690;2023-05-19T13:53:02;10.60;;;5.40;;
71080;SDS011;58740;50.672;18.690;2023-05-19T13:55:31;8.70;;;5.10;;
71080;SDS011;58740;50.672;18.690;2023-05-19T13:57:59;10.90;;;5.70;;
71080;SDS011;58740;50.672;18.690;2023-05-19T14:00:27;11.30;;;6.80;;
71080;SDS011;58740;50.672;18.690;2023-05-19T14:02:54;10.20;;;5.60;;
71080;SDS011;58740;50.672;18.690;2023-05-19T14:05:22;12.00;;;7.90;;
71080;SDS011;58740;50.672;18.690;2023-05-19T14:07:50;12.40;;;8.10;;
71080;SDS011;58740;50.672;18.690;2023-05-19T14:10:18;14.60;;;7.00;;
71080;SDS011;58740;50.672;18.690;2023-05-19T14:12:46;10.70;;;6.30;;
71080;SDS011;58740;50.672;18.690;2023-05-19T14:15:34;11.90;;;8.20;;
71080;SDS011;58740;50.672;18.690;2023-05-19T14:18:04;17.00;;;8.60;;
71080;SDS011;58740;50.672;18.690;2023-05-19T14:20:45;14.00;;;8.00;;
71080;SDS011;58740;50.672;18.690;2023-05-19T14:23:13;13.90;;;7.10;;
71080;SDS011;58740;50.672;18.690;2023-05-19T14:25:43;12.80;;;8.60;;
71080;SDS011;58740;50.672;18.690;2023-05-19T14:28:11;12.30;;;5.90;;
71080;SDS011;58740;50.672;18.690;2023-05-19T14:30:38;13.20;;;7.50;;
71080;SDS011;58740;50.672;18.690;2023-05-19T14:33:06;11.30;;;6.30;;
71080;SDS011;58740;50.672;18.690;2023-05-19T14:35:35;13.10;;;8.10;;
71080;SDS011;58740;50.672;18.690;2023-05-19T14:38:03;11.50;;;7.00;;
71080;SDS011;58740;50.672;18.690;2023-05-19T14:40:31;13.40;;;9.10;;
71080;SDS011;58740;50.672;18.690;2023-05-19T14:42:59;13.80;;;8.10;;
71080;SDS011;58740;50.672;18.690;2023-05-19T14:45:27;13.60;;;9.00;;
71080;SDS011;58740;50.672;18.690;2023-05-19T14:47:55;14.40;;;9.20;;
71080;SDS011;58740;50.672;18.690;2023-05-19T14:50:23;13.80;;;8.90;;
71080;SDS011;58740;50.672;18.690;2023-05-19T14:52:51;14.70;;;8.90;;
71080;SDS011;58740;50.672;18.690;2023-05-19T14:55:18;15.00;;;9.00;;
71080;SDS011;58740;50.672;18.690;2023-05-19T14:57:46;12.50;;;7.40;;
71080;SDS011;58740;50.672;18.690;2023-05-19T15:00:14;14.60;;;8.00;;
71080;SDS011;58740;50.672;18.690;2023-05-19T15:02:44;12.40;;;7.40;;
71080;SDS011;58740;50.672;18.690;2023-05-19T15:05:12;16.60;;;10.00;;